createdAt,value
2022-10-27T00:01:40.207Z,11.80
2022-10-27T00:04:06.995Z,11.80
2022-10-27T00:06:34.502Z,11.70
2022-10-27T00:09:01.454Z,11.80
2022-10-27T00:11:30.351Z,11.70
2022-10-27T00:13:57.060Z,11.70
2022-10-27T00:16:24.034Z,11.70
2022-10-27T00:18:53.220Z,11.70
2022-10-27T00:21:20.611Z,11.70
2022-10-27T00:23:51.047Z,11.70
2022-10-27T00:26:22.067Z,11.70
2022-10-27T00:28:48.928Z,11.70
2022-10-27T00:31:17.328Z,11.70
2022-10-27T00:33:51.348Z,11.70
2022-10-27T00:36:24.863Z,11.70
2022-10-27T00:38:56.136Z,11.70
2022-10-27T00:41:30.317Z,11.70
2022-10-27T00:43:58.387Z,11.70
2022-10-27T00:46:33.995Z,11.70
2022-10-27T00:49:04.818Z,11.70
2022-10-27T00:51:31.613Z,11.70
2022-10-27T00:53:58.379Z,11.60
2022-10-27T00:56:25.137Z,11.60
2022-10-27T00:58:52.043Z,11.60
2022-10-27T01:01:18.941Z,11.60
2022-10-27T01:03:45.728Z,11.50
2022-10-27T01:06:12.894Z,11.50
2022-10-27T01:08:39.810Z,11.50
2022-10-27T01:11:06.546Z,11.40
2022-10-27T01:13:33.264Z,11.40
2022-10-27T01:16:28.809Z,11.40
2022-10-27T01:19:13.642Z,11.40
2022-10-27T01:22:02.607Z,11.40
2022-10-27T01:24:54.678Z,11.40
2022-10-27T01:27:42.660Z,11.30
2022-10-27T01:30:12.543Z,11.30
2022-10-27T01:33:03.808Z,11.30
2022-10-27T01:35:46.517Z,11.30
2022-10-27T01:38:52.323Z,11.30
2022-10-27T01:41:36.511Z,11.20
2022-10-27T01:44:07.026Z,11.10
2022-10-27T01:46:33.768Z,11.10
2022-10-27T01:49:00.514Z,11.10
2022-10-27T01:51:29.478Z,11.00
2022-10-27T01:53:56.741Z,11.00
2022-10-27T01:56:49.659Z,10.90
2022-10-27T01:59:36.814Z,10.90
2022-10-27T02:02:48.693Z,10.80
2022-10-27T02:05:27.468Z,10.80
2022-10-27T02:08:12.228Z,10.80
2022-10-27T02:10:44.371Z,10.80
2022-10-27T02:13:11.240Z,10.80
2022-10-27T02:15:43.932Z,10.80
2022-10-27T02:18:17.030Z,10.80
2022-10-27T02:20:48.307Z,10.80
2022-10-27T02:23:17.427Z,10.80
2022-10-27T02:25:49.612Z,10.80
2022-10-27T02:28:16.882Z,10.80
2022-10-27T02:30:43.860Z,10.80
2022-10-27T02:33:10.823Z,10.80
2022-10-27T02:35:37.672Z,10.80
2022-10-27T02:38:04.488Z,10.70
2022-10-27T02:40:33.463Z,10.70
2022-10-27T02:43:00.302Z,10.60
2022-10-27T02:45:29.586Z,10.60
2022-10-27T02:47:56.349Z,10.60
2022-10-27T02:50:23.128Z,10.60
2022-10-27T02:52:52.310Z,10.60
2022-10-27T02:55:19.287Z,10.60
2022-10-27T02:57:48.387Z,10.60
2022-10-27T03:00:15.946Z,10.50
2022-10-27T03:02:42.776Z,10.50
2022-10-27T03:05:11.928Z,10.50
2022-10-27T03:07:38.702Z,10.50
2022-10-27T03:10:08.519Z,10.50
2022-10-27T03:12:37.399Z,10.50
2022-10-27T03:15:06.918Z,10.50
2022-10-27T03:17:33.692Z,10.50
2022-10-27T03:20:00.753Z,10.50
2022-10-27T03:22:27.554Z,10.40
2022-10-27T03:24:54.282Z,10.40
2022-10-27T03:27:23.240Z,10.30
2022-10-27T03:29:52.288Z,10.30
2022-10-27T03:32:19.077Z,10.30
2022-10-27T03:34:45.861Z,10.20
2022-10-27T03:37:12.607Z,10.20
2022-10-27T03:39:42.319Z,10.20
2022-10-27T03:42:09.058Z,10.20
2022-10-27T03:44:35.856Z,10.20
2022-10-27T03:47:02.662Z,10.20
2022-10-27T03:49:34.316Z,10.20
2022-10-27T03:52:03.672Z,10.10
2022-10-27T03:54:31.399Z,10.10
2022-10-27T03:56:58.300Z,10.10
2022-10-27T03:59:27.559Z,10.10
2022-10-27T04:01:54.448Z,10.10
2022-10-27T04:04:23.455Z,10.10
2022-10-27T04:06:50.241Z,10.10
2022-10-27T04:09:19.767Z,10.10
2022-10-27T04:11:46.558Z,10.10
2022-10-27T04:14:13.389Z,10.10
2022-10-27T04:16:43.101Z,10.10
2022-10-27T04:19:11.355Z,10.10
2022-10-27T04:21:40.398Z,10.00
2022-10-27T04:24:09.314Z,10.00
2022-10-27T04:26:36.076Z,9.90
2022-10-27T04:29:02.949Z,9.90
2022-10-27T04:31:29.689Z,9.90
2022-10-27T04:33:59.338Z,9.90
2022-10-27T04:36:26.498Z,9.90
2022-10-27T04:38:53.227Z,9.90
2022-10-27T04:41:20.018Z,9.90
2022-10-27T04:46:21.082Z,10.00
2022-10-27T04:48:47.845Z,10.00
2022-10-27T04:51:18.045Z,10.00
2022-10-27T04:53:49.560Z,9.90
2022-10-27T04:56:16.350Z,9.90
2022-10-27T04:58:43.157Z,9.90
2022-10-27T05:01:15.231Z,9.90
2022-10-27T05:03:44.275Z,9.90
2022-10-27T05:06:11.692Z,9.90
2022-10-27T05:08:38.450Z,9.90
2022-10-27T05:11:05.332Z,9.90
2022-10-27T05:13:32.055Z,9.90
2022-10-27T05:16:02.769Z,9.90
2022-10-27T05:18:29.546Z,9.90
2022-10-27T05:20:58.445Z,9.90
2022-10-27T05:23:25.184Z,9.80
2022-10-27T05:25:52.957Z,9.80
2022-10-27T05:28:20.010Z,9.80
2022-10-27T05:30:46.910Z,9.80
2022-10-27T05:33:13.750Z,9.80
2022-10-27T05:35:45.321Z,9.80
2022-10-27T05:38:14.655Z,9.80
2022-10-27T05:40:41.425Z,9.80
2022-10-27T05:43:10.445Z,9.80
2022-10-27T05:45:39.302Z,9.80
2022-10-27T05:48:09.891Z,9.80
2022-10-27T05:50:36.711Z,9.80
2022-10-27T05:53:06.066Z,9.80
2022-10-27T05:55:35.841Z,9.70
2022-10-27T05:58:07.612Z,9.80
2022-10-27T06:00:35.859Z,9.80
2022-10-27T06:03:08.239Z,9.80
2022-10-27T06:05:36.562Z,9.80
2022-10-27T06:08:03.362Z,9.80
2022-10-27T06:10:30.131Z,9.90
2022-10-27T06:13:06.724Z,9.90
2022-10-27T06:15:33.907Z,10.00
2022-10-27T06:18:00.737Z,10.00
2022-10-27T06:20:27.845Z,10.00
2022-10-27T06:22:54.645Z,10.10
2022-10-27T06:25:24.083Z,10.10
2022-10-27T06:27:53.207Z,10.10
2022-10-27T06:30:22.347Z,10.10
2022-10-27T06:32:49.168Z,10.20
2022-10-27T06:35:16.041Z,10.20
2022-10-27T06:37:48.560Z,10.30
2022-10-27T06:40:19.570Z,10.30
2022-10-27T06:43:07.527Z,10.30
2022-10-27T06:45:37.284Z,10.30
2022-10-27T06:48:04.616Z,10.30
2022-10-27T06:50:31.603Z,10.40
2022-10-27T06:52:59.026Z,10.40
2022-10-27T06:55:25.852Z,10.40
2022-10-27T06:57:52.985Z,10.40
2022-10-27T07:00:29.802Z,10.40
2022-10-27T07:02:56.650Z,10.40
2022-10-27T07:05:25.738Z,10.40
2022-10-27T07:07:53.342Z,10.60
2022-10-27T07:10:20.708Z,10.60
2022-10-27T07:13:00.682Z,10.70
2022-10-27T07:15:31.744Z,10.70
2022-10-27T07:18:02.434Z,10.80
2022-10-27T07:20:33.613Z,10.80
2022-10-27T07:23:00.832Z,10.80
2022-10-27T07:25:28.270Z,10.90
2022-10-27T07:27:55.915Z,10.90
2022-10-27T07:30:30.757Z,10.90
2022-10-27T07:32:58.171Z,10.90
2022-10-27T07:35:25.258Z,10.90
2022-10-27T07:37:52.554Z,10.90
2022-10-27T07:40:23.113Z,11.00
2022-10-27T07:42:56.710Z,10.90
2022-10-27T07:45:25.320Z,11.00
2022-10-27T07:48:02.673Z,11.00
2022-10-27T07:50:30.173Z,11.10
2022-10-27T07:53:00.454Z,11.20
2022-10-27T07:55:30.877Z,11.20
2022-10-27T07:58:02.103Z,11.30
2022-10-27T08:00:34.439Z,11.30
2022-10-27T08:03:02.152Z,11.30
2022-10-27T08:05:35.735Z,11.40
2022-10-27T08:08:06.783Z,11.40
2022-10-27T08:10:35.193Z,11.40
2022-10-27T08:13:02.129Z,11.40
2022-10-27T08:15:29.514Z,11.40
2022-10-27T08:17:58.115Z,11.50
2022-10-27T08:20:25.151Z,11.50
2022-10-27T08:22:58.511Z,11.50
2022-10-27T08:25:30.872Z,11.50
2022-10-27T08:28:00.217Z,11.60
2022-10-27T08:30:29.116Z,11.70
2022-10-27T08:33:00.040Z,11.80
2022-10-27T08:35:27.345Z,11.80
2022-10-27T08:38:16.861Z,11.90
2022-10-27T08:41:07.586Z,12.00
2022-10-27T08:43:52.876Z,12.00
2022-10-27T08:46:22.348Z,12.00
2022-10-27T08:48:49.571Z,12.00
2022-10-27T08:51:19.009Z,12.10
2022-10-27T08:53:49.898Z,12.10
2022-10-27T08:56:16.814Z,12.20
2022-10-27T08:58:49.920Z,12.20
2022-10-27T09:01:22.040Z,12.30
2022-10-27T09:04:20.074Z,12.40
2022-10-27T09:06:55.160Z,12.50
2022-10-27T09:09:57.377Z,12.50
2022-10-27T09:12:24.279Z,12.60
2022-10-27T09:15:19.367Z,12.80
2022-10-27T09:18:15.432Z,12.70
2022-10-27T09:20:51.096Z,12.80
2022-10-27T09:23:25.701Z,12.80
2022-10-27T09:25:53.242Z,12.90
2022-10-27T09:28:30.709Z,12.90
2022-10-27T09:33:31.258Z,13.00
2022-10-27T09:35:58.076Z,13.10
2022-10-27T09:38:28.356Z,13.20
2022-10-27T09:40:55.301Z,13.20
2022-10-27T09:43:25.394Z,13.20
2022-10-27T09:45:55.414Z,13.30
2022-10-27T09:48:26.281Z,13.30
2022-10-27T09:51:17.768Z,13.40
2022-10-27T09:53:51.131Z,13.40
2022-10-27T09:56:28.766Z,13.50
2022-10-27T09:59:00.893Z,13.60
2022-10-27T10:01:55.518Z,13.70
2022-10-27T10:04:35.710Z,13.70
2022-10-27T10:07:09.884Z,13.80
2022-10-27T10:09:39.717Z,13.80
2022-10-27T10:12:14.519Z,13.80
2022-10-27T10:14:45.690Z,13.90
2022-10-27T10:17:31.035Z,13.90
2022-10-27T10:20:00.391Z,14.00
2022-10-27T10:22:31.933Z,14.00
2022-10-27T10:25:17.033Z,14.10
2022-10-27T10:27:45.221Z,14.20
2022-10-27T10:30:18.957Z,14.20
2022-10-27T10:32:53.128Z,14.20
2022-10-27T10:35:42.302Z,14.30
2022-10-27T10:38:30.373Z,14.40
2022-10-27T10:40:59.273Z,14.40
2022-10-27T10:43:26.075Z,14.50
2022-10-27T10:45:53.044Z,14.50
2022-10-27T10:48:30.285Z,14.70
2022-10-27T10:50:57.138Z,14.70
2022-10-27T10:53:29.162Z,14.80
2022-10-27T10:56:18.520Z,14.80
2022-10-27T10:58:45.254Z,14.80
2022-10-27T11:01:14.612Z,14.90
2022-10-27T11:03:43.687Z,14.90
2022-10-27T11:06:20.530Z,15.00
2022-10-27T11:08:58.658Z,15.00
2022-10-27T11:11:29.490Z,15.10
2022-10-27T11:14:01.509Z,15.20
2022-10-27T11:16:28.255Z,15.30
2022-10-27T11:18:55.427Z,15.30
2022-10-27T11:21:26.863Z,15.40
2022-10-27T11:23:56.298Z,15.40
2022-10-27T11:26:35.564Z,15.40
2022-10-27T11:29:18.936Z,15.50
2022-10-27T11:31:51.568Z,15.50
2022-10-27T11:34:26.175Z,15.60
2022-10-27T11:37:13.625Z,15.60
2022-10-27T11:40:24.157Z,15.70
2022-10-27T11:42:58.377Z,15.70
2022-10-27T11:45:29.035Z,15.70
2022-10-27T11:48:00.045Z,15.80
2022-10-27T11:50:28.458Z,15.80
2022-10-27T11:52:57.040Z,15.90
2022-10-27T11:55:28.995Z,15.90
2022-10-27T11:58:20.914Z,16.00
2022-10-27T12:01:31.976Z,16.10
2022-10-27T12:04:16.476Z,16.10
2022-10-27T12:07:17.848Z,16.20
2022-10-27T12:09:47.580Z,16.10
2022-10-27T12:12:26.193Z,16.20
2022-10-27T12:15:20.474Z,16.20
2022-10-27T12:17:53.671Z,16.20
2022-10-27T12:20:27.050Z,16.20
2022-10-27T12:23:15.447Z,16.20
2022-10-27T12:25:56.583Z,16.30
2022-10-27T12:28:23.401Z,16.30
2022-10-27T12:30:50.194Z,16.40
2022-10-27T12:33:23.221Z,16.40
2022-10-27T12:36:26.935Z,16.40
2022-10-27T12:38:59.708Z,16.40
2022-10-27T12:41:26.485Z,16.40
2022-10-27T12:44:05.242Z,16.40
2022-10-27T12:46:47.300Z,16.50
2022-10-27T12:49:35.761Z,16.50
2022-10-27T12:52:08.678Z,16.50
2022-10-27T12:57:35.969Z,16.40
2022-10-27T13:00:04.730Z,16.40
2022-10-27T13:02:37.353Z,16.40
2022-10-27T13:05:22.430Z,16.40
2022-10-27T13:08:04.579Z,16.50
2022-10-27T13:10:49.150Z,16.60
2022-10-27T13:13:25.638Z,16.60
2022-10-27T13:16:17.006Z,16.60
2022-10-27T13:19:04.081Z,16.60
2022-10-27T13:21:39.640Z,16.60
2022-10-27T13:24:29.631Z,16.60
2022-10-27T13:27:04.485Z,16.50
2022-10-27T13:29:34.923Z,16.60
2022-10-27T13:32:17.191Z,16.60
2022-10-27T13:35:15.036Z,16.50
2022-10-27T13:38:02.320Z,16.50
2022-10-27T13:40:39.428Z,16.50
2022-10-27T13:43:24.638Z,16.60
2022-10-27T13:45:55.178Z,16.60
2022-10-27T13:48:28.137Z,16.60
2022-10-27T13:51:01.841Z,16.50
2022-10-27T13:53:28.626Z,16.40
2022-10-27T13:55:56.575Z,16.40
2022-10-27T13:58:53.763Z,16.40
2022-10-27T14:01:40.489Z,16.40
2022-10-27T14:04:47.153Z,16.40
2022-10-27T14:07:16.292Z,16.50
2022-10-27T14:09:51.988Z,16.50
2022-10-27T14:12:28.958Z,16.50
2022-10-27T14:15:11.516Z,16.50
2022-10-27T14:17:38.239Z,16.50
2022-10-27T14:20:31.864Z,16.50
2022-10-27T14:23:07.866Z,16.60
2022-10-27T14:25:34.752Z,16.60
2022-10-27T14:28:15.096Z,16.60
2022-10-27T14:30:45.523Z,16.60
2022-10-27T14:33:24.763Z,16.60
2022-10-27T14:36:10.386Z,16.60
2022-10-27T14:38:37.234Z,16.50
2022-10-27T14:41:05.633Z,16.50
2022-10-27T14:43:40.390Z,16.50
2022-10-27T14:46:10.817Z,16.50
2022-10-27T14:48:37.586Z,16.50
2022-10-27T14:51:11.772Z,16.50
2022-10-27T14:53:38.579Z,16.50
2022-10-27T14:56:20.418Z,16.50
2022-10-27T14:58:51.804Z,16.50
2022-10-27T15:01:34.521Z,16.50
2022-10-27T15:04:16.912Z,16.50
2022-10-27T15:06:46.802Z,16.50
2022-10-27T15:09:50.090Z,16.50
2022-10-27T15:12:33.181Z,16.40
2022-10-27T15:15:03.814Z,16.40
2022-10-27T15:17:36.484Z,16.40
2022-10-27T15:20:05.618Z,16.40
2022-10-27T15:22:35.518Z,16.40
2022-10-27T15:25:04.783Z,16.30
2022-10-27T15:27:33.673Z,16.30
2022-10-27T15:30:03.046Z,16.30
2022-10-27T15:32:39.160Z,16.20
2022-10-27T15:35:29.401Z,16.20
2022-10-27T15:37:56.514Z,16.20
2022-10-27T15:40:29.364Z,16.20
2022-10-27T15:42:56.549Z,16.20
2022-10-27T15:45:49.278Z,16.10
2022-10-27T15:48:27.377Z,16.10
2022-10-27T15:51:18.278Z,16.10
2022-10-27T15:53:51.976Z,16.00
2022-10-27T15:56:29.972Z,16.00
2022-10-27T15:59:26.431Z,16.00
2022-10-27T16:02:01.225Z,16.00
2022-10-27T16:04:31.763Z,15.90
2022-10-27T16:07:16.022Z,15.90
2022-10-27T16:09:51.805Z,15.90
2022-10-27T16:12:29.330Z,15.90
2022-10-27T16:15:00.012Z,15.80
2022-10-27T16:17:39.493Z,15.80
2022-10-27T16:20:08.045Z,15.80
2022-10-27T16:22:34.862Z,15.80
2022-10-27T16:25:01.641Z,15.70
2022-10-27T16:27:33.704Z,15.70
2022-10-27T16:30:02.173Z,15.70
2022-10-27T16:32:30.428Z,15.70
2022-10-27T16:34:59.935Z,15.70
2022-10-27T16:37:30.550Z,15.70
2022-10-27T16:39:59.536Z,15.60
2022-10-27T16:42:27.687Z,15.60
2022-10-27T16:44:54.546Z,15.60
2022-10-27T16:47:21.285Z,15.60
2022-10-27T16:49:48.807Z,15.50
2022-10-27T16:52:15.657Z,15.50
2022-10-27T16:54:42.519Z,15.50
2022-10-27T16:57:09.671Z,15.50
2022-10-27T16:59:36.523Z,15.50
2022-10-27T17:02:03.330Z,15.50
2022-10-27T17:04:30.185Z,15.50
2022-10-27T17:06:59.412Z,15.40
2022-10-27T17:09:28.387Z,15.50
2022-10-27T17:11:57.677Z,15.40
2022-10-27T17:14:24.497Z,15.40
2022-10-27T17:16:51.256Z,15.40
2022-10-27T17:19:18.033Z,15.40
2022-10-27T17:21:47.236Z,15.30
2022-10-27T17:24:14.372Z,15.30
2022-10-27T17:26:41.095Z,15.30
2022-10-27T17:29:10.398Z,15.30
2022-10-27T17:31:37.171Z,15.30
2022-10-27T17:34:04.004Z,15.30
2022-10-27T17:36:33.770Z,15.20
2022-10-27T17:39:02.721Z,15.20
2022-10-27T17:41:29.596Z,15.20
2022-10-27T17:43:56.377Z,15.20
2022-10-27T17:46:23.613Z,15.10
2022-10-27T17:48:54.088Z,15.10
2022-10-27T17:51:24.597Z,15.10
2022-10-27T17:53:51.733Z,15.10
2022-10-27T17:56:20.099Z,15.00
2022-10-27T17:58:47.130Z,15.00
2022-10-27T18:01:15.571Z,15.00
2022-10-27T18:03:45.304Z,15.00
2022-10-27T18:06:19.646Z,15.00
2022-10-27T18:08:51.349Z,15.00
2022-10-27T18:11:22.132Z,14.90
2022-10-27T18:13:49.859Z,14.90
2022-10-27T18:16:24.553Z,14.90
2022-10-27T18:18:55.160Z,14.90
2022-10-27T18:21:22.054Z,14.80
2022-10-27T18:23:52.463Z,14.80
2022-10-27T18:26:21.850Z,14.80
2022-10-27T18:28:50.960Z,14.80
2022-10-27T18:31:19.625Z,14.80
2022-10-27T18:33:48.525Z,14.80
2022-10-27T18:36:22.698Z,14.70
2022-10-27T18:38:58.593Z,14.70
2022-10-27T18:41:26.516Z,14.70
2022-10-27T18:43:53.920Z,14.70
2022-10-27T18:46:26.069Z,14.70
2022-10-27T18:48:55.218Z,14.70
2022-10-27T18:51:22.166Z,14.70
2022-10-27T18:53:53.861Z,14.60
2022-10-27T18:56:21.740Z,14.60
2022-10-27T18:58:58.116Z,14.60
2022-10-27T19:01:25.579Z,14.60
2022-10-27T19:03:53.633Z,14.60
2022-10-27T19:06:20.407Z,14.60
2022-10-27T19:08:49.609Z,14.50
2022-10-27T19:11:19.436Z,14.50
2022-10-27T19:13:46.203Z,14.50
2022-10-27T19:16:20.352Z,14.50
2022-10-27T19:18:47.566Z,14.50
2022-10-27T19:21:16.316Z,14.50
2022-10-27T19:23:54.898Z,14.50
2022-10-27T19:26:23.314Z,14.50
2022-10-27T19:28:50.319Z,14.40
2022-10-27T19:31:21.573Z,14.40
2022-10-27T19:33:49.059Z,14.40
2022-10-27T19:36:36.857Z,14.40
2022-10-27T19:39:05.818Z,14.40
2022-10-27T19:41:33.196Z,14.30
2022-10-27T19:44:00.365Z,14.30
2022-10-27T19:46:27.624Z,14.30
2022-10-27T19:48:55.715Z,14.30
2022-10-27T19:51:28.881Z,14.30
2022-10-27T19:54:02.547Z,14.20
2022-10-27T19:56:35.505Z,14.20
2022-10-27T19:59:03.690Z,14.20
2022-10-27T20:01:34.143Z,14.20
2022-10-27T20:04:07.065Z,14.10
2022-10-27T20:06:36.501Z,14.10
2022-10-27T20:09:06.124Z,14.10
2022-10-27T20:11:33.526Z,14.10
2022-10-27T20:14:01.635Z,14.10
2022-10-27T20:16:32.251Z,14.10
2022-10-27T20:19:07.162Z,14.10
2022-10-27T20:21:34.095Z,14.00
2022-10-27T20:24:10.011Z,14.00
2022-10-27T20:26:36.819Z,14.00
2022-10-27T20:29:06.261Z,14.00
2022-10-27T20:31:33.144Z,14.00
2022-10-27T20:34:00.224Z,13.90
2022-10-27T20:36:29.316Z,13.90
2022-10-27T20:38:56.910Z,13.90
2022-10-27T20:41:24.913Z,13.80
2022-10-27T20:43:59.993Z,13.80
2022-10-27T20:46:28.717Z,13.80
2022-10-27T20:48:58.265Z,13.80
2022-10-27T20:51:26.570Z,13.80
2022-10-27T20:53:55.958Z,13.70
2022-10-27T20:56:28.694Z,13.70
2022-10-27T20:59:00.104Z,13.60
2022-10-27T21:01:40.591Z,13.60
2022-10-27T21:04:12.561Z,13.60
2022-10-27T21:06:43.478Z,13.50
2022-10-27T21:09:14.818Z,13.50
2022-10-27T21:11:41.832Z,13.50
2022-10-27T21:14:08.894Z,13.50
2022-10-27T21:16:38.220Z,13.50
2022-10-27T21:19:07.722Z,13.50
2022-10-27T21:21:34.713Z,13.50
2022-10-27T21:24:02.336Z,13.40
2022-10-27T21:26:31.819Z,13.40
2022-10-27T21:28:58.812Z,13.40
2022-10-27T21:31:29.823Z,13.40
2022-10-27T21:33:56.937Z,13.40
2022-10-27T21:36:23.682Z,13.40
2022-10-27T21:38:50.683Z,13.40
2022-10-27T21:41:21.540Z,13.30
2022-10-27T21:43:49.885Z,13.30
2022-10-27T21:46:18.293Z,13.40
2022-10-27T21:48:45.165Z,13.40
2022-10-27T21:51:13.416Z,13.40
2022-10-27T21:53:40.354Z,13.40
2022-10-27T21:56:08.203Z,13.30
2022-10-27T21:58:36.427Z,13.30
2022-10-27T22:01:11.224Z,13.30
2022-10-27T22:03:38.329Z,13.30
2022-10-27T22:06:05.676Z,13.30
2022-10-27T22:08:32.537Z,13.30
2022-10-27T22:11:06.742Z,13.20
2022-10-27T22:13:33.742Z,13.20
2022-10-27T22:16:10.694Z,13.20
2022-10-27T22:18:37.735Z,13.30
2022-10-27T22:21:08.004Z,13.30
2022-10-27T22:23:35.031Z,13.20
2022-10-27T22:26:09.823Z,13.20
2022-10-27T22:28:36.715Z,13.20
2022-10-27T22:31:11.909Z,13.20
2022-10-27T22:33:43.203Z,13.20
2022-10-27T22:36:16.049Z,13.20
2022-10-27T22:38:44.961Z,13.20
2022-10-27T22:41:18.160Z,13.20
2022-10-27T22:43:49.729Z,13.20
2022-10-27T22:46:19.960Z,13.20
2022-10-27T22:48:49.013Z,13.20
2022-10-27T22:51:17.590Z,13.20
2022-10-27T22:53:47.128Z,13.20
2022-10-27T22:56:16.909Z,13.10
2022-10-27T22:58:45.876Z,13.10
2022-10-27T23:01:14.649Z,13.10
2022-10-27T23:03:41.499Z,13.10
2022-10-27T23:06:10.604Z,13.10
2022-10-27T23:08:37.400Z,13.10
2022-10-27T23:11:05.937Z,13.10
2022-10-27T23:13:34.495Z,13.10
2022-10-27T23:16:02.594Z,13.10
2022-10-27T23:18:29.373Z,13.10
2022-10-27T23:20:58.921Z,13.00
2022-10-27T23:23:28.685Z,13.10
2022-10-27T23:25:57.963Z,13.10
2022-10-27T23:28:25.657Z,13.00
2022-10-27T23:30:52.499Z,13.10
2022-10-27T23:33:19.360Z,13.10
2022-10-27T23:36:06.417Z,13.10
2022-10-27T23:38:33.254Z,13.10
2022-10-27T23:41:00.055Z,13.10
2022-10-27T23:43:29.485Z,13.10
2022-10-27T23:46:03.932Z,13.10
2022-10-27T23:48:31.049Z,13.10
2022-10-27T23:51:00.685Z,13.10
2022-10-27T23:53:27.894Z,13.10
2022-10-27T23:55:58.768Z,13.10
2022-10-27T23:58:25.771Z,13.10
